Time;durP1;ratioP1;P1;durP2;ratioP2;P2;SDS_P1;SDS_P2;PMS_P1;PMS_P2;Temp;Humidity;BMP_temperature;BMP_pressure;BME280_temperature;BME280_humidity;BME280_pressure;Samples;Min_cycle;Max_cycle;Signal;HPM_P1;HPM_P2
2021/10/30 00:02:20;;;;;;;43.15;31.20;;;;;;;6.83;100.00;97923.94;10506218;28;20052;-65
2021/10/30 00:07:23;;;;;;;45.30;31.30;;;;;;;6.83;100.00;97921.28;10510094;28;20067;-65
2021/10/30 00:12:26;;;;;;;39.92;29.33;;;;;;;6.83;100.00;97926.63;10514710;28;20119;-65
2021/10/30 00:17:31;;;;;;;44.45;30.83;;;;;;;6.84;100.00;97917.59;10518523;28;20118;-65
2021/10/30 00:22:34;;;;;;;42.50;30.35;;;;;;;6.88;100.00;97905.59;10514042;28;20125;-65
2021/10/30 00:27:37;;;;;;;42.33;30.23;;;;;;;6.85;100.00;97903.22;10519440;28;20044;-65
2021/10/30 00:32:41;;;;;;;44.90;30.95;;;;;;;6.87;100.00;97904.75;10517003;28;20040;-65
2021/10/30 00:37:45;;;;;;;43.60;30.45;;;;;;;6.85;100.00;97906.72;10518602;28;20048;-65
2021/10/30 00:42:48;;;;;;;41.67;29.92;;;;;;;6.86;100.00;97899.56;10519422;28;20051;-65
2021/10/30 00:47:52;;;;;;;41.85;30.23;;;;;;;6.86;100.00;97897.72;10518854;28;20136;-64
2021/10/30 00:52:56;;;;;;;40.63;29.73;;;;;;;6.84;100.00;97901.53;10518397;28;20028;-67
2021/10/30 00:58:01;;;;;;;39.35;28.50;;;;;;;6.78;100.00;97892.28;10519047;28;20140;-64
2021/10/30 01:03:06;;;;;;;43.55;30.48;;;;;;;6.78;100.00;97885.06;10517432;28;20052;-64
2021/10/30 01:08:13;;;;;;;42.63;30.70;;;;;;;6.79;100.00;97892.13;10515469;28;20050;-66
2021/10/30 01:13:17;;;;;;;42.00;30.00;;;;;;;6.79;100.00;97886.75;10518625;28;20498;-64
2021/10/30 01:18:23;;;;;;;42.17;30.52;;;;;;;6.78;100.00;97884.25;10516951;28;20133;-66
2021/10/30 01:23:27;;;;;;;43.03;31.13;;;;;;;6.75;100.00;97879.19;10515135;28;20036;-65
2021/10/30 01:28:34;;;;;;;44.88;31.15;;;;;;;6.71;100.00;97884.00;10513926;28;20055;-64
2021/10/30 01:33:37;;;;;;;41.63;30.30;;;;;;;6.69;100.00;97875.28;10517929;28;20044;-64
2021/10/30 01:38:42;;;;;;;43.78;31.77;;;;;;;6.65;100.00;97878.41;10516507;28;20062;-65
2021/10/30 01:43:45;;;;;;;46.17;32.20;;;;;;;6.58;100.00;97868.31;10517395;28;20044;-65
2021/10/30 01:48:50;;;;;;;43.78;30.60;;;;;;;6.57;100.00;97871.13;10516649;28;20065;-64
2021/10/30 01:53:55;;;;;;;50.78;32.03;;;;;;;6.56;100.00;97870.28;10514158;28;20052;-64
2021/10/30 01:58:58;;;;;;;45.60;32.42;;;;;;;6.55;100.00;97862.38;10512796;28;20048;-64
2021/10/30 02:04:01;;;;;;;43.88;31.08;;;;;;;6.52;100.00;97870.72;10516140;28;20751;-64
2021/10/30 02:09:06;;;;;;;43.15;30.20;;;;;;;6.50;100.00;97864.69;10514414;28;20162;-65
2021/10/30 02:14:09;;;;;;;44.00;31.13;;;;;;;6.45;100.00;97863.28;10516394;28;20494;-64
2021/10/30 02:19:12;;;;;;;44.47;31.27;;;;;;;6.42;100.00;97862.75;10534786;27;20512;-64
2021/10/30 02:24:17;;;;;;;44.22;31.67;;;;;;;6.38;100.00;97854.19;10513832;28;20464;-64
2021/10/30 02:29:20;;;;;;;45.67;32.05;;;;;;;6.38;100.00;97835.44;10511822;28;20044;-64
2021/10/30 02:34:23;;;;;;;44.45;32.78;;;;;;;6.36;100.00;97839.25;10514218;28;20079;-64
2021/10/30 02:39:27;;;;;;;45.78;31.30;;;;;;;6.32;100.00;97841.38;10513539;28;20060;-64
2021/10/30 02:44:31;;;;;;;48.33;31.83;;;;;;;6.31;100.00;97847.72;10511291;28;20063;-66
2021/10/30 02:49:38;;;;;;;46.90;32.30;;;;;;;6.29;100.00;97844.38;10509907;28;20039;-65
2021/10/30 02:54:43;;;;;;;50.05;33.72;;;;;;;6.24;100.00;97844.78;10509040;28;20093;-65
2021/10/30 02:59:46;;;;;;;47.70;33.35;;;;;;;6.16;100.00;97844.69;10510341;28;20450;-67
2021/10/30 03:04:49;;;;;;;50.25;33.05;;;;;;;6.07;100.00;97843.75;10509474;28;20036;-64
2021/10/30 03:09:53;;;;;;;49.40;34.22;;;;;;;6.02;100.00;97832.66;10510952;28;20040;-64
2021/10/30 03:14:56;;;;;;;52.95;35.22;;;;;;;5.95;100.00;97832.38;10511207;28;20139;-65
2021/10/30 03:19:59;;;;;;;53.08;35.15;;;;;;;5.89;100.00;97832.94;10509230;28;20048;-65
2021/10/30 03:25:04;;;;;;;55.92;36.45;;;;;;;5.81;100.00;97835.50;10507541;28;20139;-65
2021/10/30 03:30:09;;;;;;;55.85;37.03;;;;;;;5.77;100.00;97826.09;10506962;28;20073;-65
2021/10/30 03:35:12;;;;;;;54.03;37.75;;;;;;;5.73;100.00;97828.22;10510540;28;20054;-65
2021/10/30 03:40:17;;;;;;;54.63;38.28;;;;;;;5.70;100.00;97831.19;10504352;28;20298;-64
2021/10/30 03:45:20;;;;;;;55.53;37.72;;;;;;;5.65;100.00;97820.91;10506291;28;20066;-64
2021/10/30 03:50:23;;;;;;;60.53;40.30;;;;;;;5.65;100.00;97825.44;10489499;27;20058;-65
2021/10/30 03:55:29;;;;;;;60.42;39.83;;;;;;;5.62;100.00;97833.72;10466970;28;20052;-64
2021/10/30 04:00:33;;;;;;;56.33;39.25;;;;;;;5.58;100.00;97827.84;10467618;28;20032;-64
2021/10/30 04:05:36;;;;;;;63.60;38.83;;;;;;;5.49;100.00;97824.19;10467837;28;20051;-64
2021/10/30 04:10:42;;;;;;;61.10;39.58;;;;;;;5.46;100.00;97811.16;10462496;28;20055;-65
2021/10/30 04:15:46;;;;;;;60.45;40.83;;;;;;;5.41;100.00;97810.72;10465254;28;20111;-65
2021/10/30 04:20:49;;;;;;;55.95;40.78;;;;;;;5.37;100.00;97801.28;10465981;28;20689;-65
2021/10/30 04:25:54;;;;;;;59.20;41.90;;;;;;;5.36;100.00;97796.94;10465055;28;20048;-66
2021/10/30 04:31:00;;;;;;;63.85;41.92;;;;;;;5.34;100.00;97788.25;10465632;28;20562;-65
2021/10/30 04:36:14;;;;;;;66.40;43.40;;;;;;;5.34;100.00;97790.94;10465186;28;20048;-66
2021/10/30 04:41:19;;;;;;;60.90;42.63;;;;;;;5.34;100.00;97788.25;10467184;28;20045;-64
2021/10/30 04:46:24;;;;;;;64.72;43.00;;;;;;;5.35;100.00;97793.44;10465004;28;20052;-65
2021/10/30 04:51:27;;;;;;;60.25;42.20;;;;;;;5.38;100.00;97778.94;10463316;28;20126;-65
2021/10/30 04:56:31;;;;;;;68.45;44.05;;;;;;;5.38;100.00;97769.13;10463725;28;20048;-65
2021/10/30 05:01:34;;;;;;;67.80;43.63;;;;;;;5.40;100.00;97758.28;10471896;28;20752;-66
2021/10/30 05:06:37;;;;;;;63.40;44.65;;;;;;;5.40;100.00;97744.94;10469862;28;20525;-66
2021/10/30 05:11:42;;;;;;;63.58;42.28;;;;;;;5.42;100.00;97748.28;10473372;28;20616;-67
2021/10/30 05:16:45;;;;;;;60.35;40.20;;;;;;;5.51;100.00;97742.06;10475230;28;20818;-65
2021/10/30 05:21:48;;;;;;;64.05;41.75;;;;;;;5.55;100.00;97730.13;10471257;28;20052;-65
2021/10/30 05:26:53;;;;;;;65.70;42.97;;;;;;;5.51;100.00;97726.03;10475725;28;20492;-66
2021/10/30 05:31:57;;;;;;;62.88;43.70;;;;;;;5.50;100.00;97721.69;10473809;28;20394;-64
2021/10/30 05:37:00;;;;;;;66.90;43.58;;;;;;;5.45;100.00;97721.31;10473424;28;20087;-66
2021/10/30 05:42:13;;;;;;;66.83;44.97;;;;;;;5.37;100.00;97719.34;10468566;28;20572;-66
2021/10/30 05:47:16;;;;;;;68.13;43.40;;;;;;;5.33;100.00;97719.78;10472088;28;20163;-71
2021/10/30 05:52:19;;;;;;;64.45;44.15;;;;;;;5.31;100.00;97711.09;10469617;28;20040;-68
2021/10/30 05:57:25;;;;;;;68.20;45.47;;;;;;;5.24;100.00;97714.31;10469702;28;21344;-65
2021/10/30 06:02:28;;;;;;;73.60;47.72;;;;;;;5.19;100.00;97711.25;10474306;28;20036;-68
2021/10/30 06:07:31;;;;;;;70.53;46.63;;;;;;;5.17;100.00;97696.38;10472322;28;20048;-68
2021/10/30 06:12:39;;;;;;;70.63;45.13;;;;;;;5.16;100.00;97695.50;10470369;28;20084;-65
2021/10/30 06:17:42;;;;;;;69.70;45.45;;;;;;;5.13;100.00;97695.78;10472682;28;20060;-65
2021/10/30 06:22:45;;;;;;;70.13;45.28;;;;;;;5.14;100.00;97686.81;10469927;28;20052;-65
2021/10/30 06:27:49;;;;;;;74.68;46.42;;;;;;;5.12;100.00;97699.44;10471793;28;20040;-65
2021/10/30 06:32:52;;;;;;;73.32;45.92;;;;;;;5.11;100.00;97692.44;10465871;28;20048;-65
2021/10/30 06:37:56;;;;;;;71.20;46.55;;;;;;;5.07;100.00;97681.19;10470083;28;20500;-65
2021/10/30 06:43:00;;;;;;;69.45;45.63;;;;;;;5.08;100.00;97677.53;10470681;28;20028;-65
2021/10/30 06:48:04;;;;;;;69.75;46.42;;;;;;;5.08;100.00;97682.88;10470581;28;20056;-65
2021/10/30 06:53:07;;;;;;;67.15;44.83;;;;;;;5.08;100.00;97666.03;10468282;28;20041;-65
2021/10/30 06:58:11;;;;;;;69.00;46.13;;;;;;;5.12;100.00;97656.72;10469787;28;20162;-65
2021/10/30 07:03:15;;;;;;;64.15;44.17;;;;;;;5.17;100.00;97659.81;10468779;28;20043;-65
2021/10/30 07:08:18;;;;;;;66.70;42.50;;;;;;;5.31;100.00;97666.50;10467614;28;20048;-63
2021/10/30 07:13:22;;;;;;;60.78;40.80;;;;;;;5.39;100.00;97669.31;10468972;28;20048;-63
2021/10/30 07:18:25;;;;;;;58.60;41.17;;;;;;;5.53;100.00;97670.63;10468839;28;20045;-62
2021/10/30 07:23:29;;;;;;;61.05;41.42;;;;;;;5.62;100.00;97663.56;10468484;28;20044;-63
2021/10/30 07:28:33;;;;;;;61.50;40.40;;;;;;;5.69;100.00;97661.16;10468889;28;20136;-63
2021/10/30 07:33:36;;;;;;;65.30;41.80;;;;;;;5.76;100.00;97656.06;10470109;28;20194;-63
2021/10/30 07:38:39;;;;;;;60.95;42.25;;;;;;;5.81;100.00;97659.94;10467110;28;20066;-63
2021/10/30 07:43:44;;;;;;;61.33;40.35;;;;;;;5.91;100.00;97656.38;10466867;28;20502;-63
2021/10/30 07:48:48;;;;;;;57.10;39.88;;;;;;;6.02;100.00;97658.88;10466228;28;20106;-63
2021/10/30 07:53:51;;;;;;;55.00;39.90;;;;;;;6.12;100.00;97653.44;10469794;28;20039;-63
2021/10/30 07:58:55;;;;;;;55.97;39.38;;;;;;;6.27;100.00;97632.34;10469505;28;20067;-63
2021/10/30 08:03:59;;;;;;;53.97;37.88;;;;;;;6.43;100.00;97616.44;10467994;28;20032;-63
2021/10/30 08:09:02;;;;;;;51.53;35.17;;;;;;;6.61;100.00;97626.28;10467953;28;20060;-64
2021/10/30 08:14:07;;;;;;;51.72;33.85;;;;;;;6.74;100.00;97610.66;10465214;28;20509;-64
2021/10/30 08:19:10;;;;;;;49.55;33.67;;;;;;;6.94;100.00;97605.06;10466397;28;20545;-63
2021/10/30 08:24:14;;;;;;;45.22;29.83;;;;;;;7.21;100.00;97606.72;10468208;28;20219;-64
2021/10/30 08:29:18;;;;;;;47.00;31.67;;;;;;;7.40;100.00;97597.59;10468089;28;20036;-64
2021/10/30 08:34:21;;;;;;;47.88;31.48;;;;;;;7.64;100.00;97585.28;10471142;28;20555;-64
2021/10/30 08:39:24;;;;;;;48.47;31.73;;;;;;;7.87;100.00;97544.44;10474446;28;20052;-63
2021/10/30 08:44:29;;;;;;;47.22;30.58;;;;;;;8.10;100.00;97544.63;10474673;28;20162;-63
2021/10/30 08:49:35;;;;;;;39.10;29.33;;;;;;;8.28;100.00;97533.75;10471214;28;20046;-63
2021/10/30 08:54:38;;;;;;;41.00;28.17;;;;;;;8.48;100.00;97514.63;10473324;28;20047;-63
2021/10/30 08:59:44;;;;;;;39.05;27.55;;;;;;;8.70;100.00;97512.22;10472038;28;20815;-62
2021/10/30 09:05:07;;;;;;;38.22;26.45;;;;;;;8.93;100.00;97498.91;10466006;28;20152;-62
2021/10/30 09:10:14;;;;;;;38.70;25.45;;;;;;;9.18;100.00;97510.38;10466281;28;20127;-62
2021/10/30 09:15:29;;;;;;;33.78;24.70;;;;;;;9.56;100.00;97515.91;10471551;28;20040;-62
2021/10/30 09:20:35;;;;;;;35.30;24.52;;;;;;;9.70;100.00;97508.06;10471469;28;20143;-62
2021/10/30 09:25:51;;;;;;;35.63;24.23;;;;;;;9.82;100.00;97517.38;10470358;28;20047;-62
2021/10/30 09:31:04;;;;;;;31.95;23.58;;;;;;;10.07;100.00;97516.38;10471849;28;20121;-63
2021/10/30 09:36:12;;;;;;;37.45;23.38;;;;;;;10.29;100.00;97514.69;10470442;28;20049;-63
2021/10/30 09:41:25;;;;;;;33.13;23.20;;;;;;;10.50;100.00;97502.41;10469498;28;20079;-63
2021/10/30 09:46:31;;;;;;;32.00;23.10;;;;;;;10.59;100.00;97509.38;10469269;28;20037;-63
2021/10/30 09:51:34;;;;;;;30.80;22.70;;;;;;;10.69;100.00;97498.34;10471507;28;20067;-63
2021/10/30 09:56:46;;;;;;;29.23;21.98;;;;;;;10.78;100.00;97508.00;10468552;28;20556;-63
2021/10/30 10:01:50;;;;;;;30.67;21.60;;;;;;;10.84;100.00;97498.34;10471741;28;20129;-67
2021/10/30 10:06:56;;;;;;;29.98;21.50;;;;;;;10.95;100.00;97496.00;10470796;28;20052;-64
2021/10/30 10:12:01;;;;;;;36.38;21.00;;;;;;;11.16;100.00;97496.28;10468351;28;20044;-66
2021/10/30 10:17:07;;;;;;;27.30;19.52;;;;;;;11.32;100.00;97482.59;10467908;28;20051;-66
2021/10/30 10:22:10;;;;;;;26.33;19.58;;;;;;;11.52;100.00;97487.38;10470843;28;20041;-63
2021/10/30 10:27:13;;;;;;;25.77;18.38;;;;;;;11.68;100.00;97480.91;10468793;28;20140;-63
2021/10/30 10:32:22;;;;;;;29.10;18.55;;;;;;;11.87;100.00;97458.69;10468141;28;20131;-63
2021/10/30 10:37:26;;;;;;;23.33;16.10;;;;;;;12.09;100.00;97458.69;10467122;28;20057;-63
2021/10/30 10:42:44;;;;;;;20.90;16.02;;;;;;;12.31;100.00;97448.69;10470826;28;20059;-63
2021/10/30 10:48:03;;;;;;;21.67;15.80;;;;;;;12.57;100.00;97441.78;10493451;28;20480;-63
2021/10/30 10:53:26;;;;;;;20.92;14.63;;;;;;;12.83;88.22;97434.88;10468466;28;20047;-64
2021/10/30 10:58:30;;;;;;;18.33;13.20;;;;;;;13.07;95.64;97430.00;10467243;28;20935;-63
2021/10/30 11:03:43;;;;;;;68.10;16.77;;;;;;;13.29;85.29;97421.75;10466263;28;20032;-63
2021/10/30 11:08:47;;;;;;;16.58;12.57;;;;;;;13.44;81.75;97408.91;10466208;28;20130;-63
2021/10/30 11:14:01;;;;;;;18.70;12.35;;;;;;;13.64;75.40;97400.00;10469097;28;20040;-63
2021/10/30 11:19:12;;;;;;;16.42;11.68;;;;;;;13.79;76.55;97397.09;10468294;28;20067;-63
2021/10/30 11:24:21;;;;;;;131.48;19.20;;;;;;;13.87;75.33;97394.19;10493458;27;20045;-63
2021/10/30 11:29:26;;;;;;;16.08;13.00;;;;;;;13.86;70.50;97385.22;10466866;28;20155;-63
2021/10/30 11:34:31;;;;;;;16.20;11.95;;;;;;;14.00;77.97;97385.22;10469235;28;20048;-63
2021/10/30 11:39:34;;;;;;;18.27;11.60;;;;;;;14.21;78.04;97386.03;10469348;28;20490;-65
2021/10/30 11:44:52;;;;;;;18.00;12.18;;;;;;;14.39;70.86;97359.13;10467271;28;20068;-65
2021/10/30 11:49:57;;;;;;;15.90;12.38;;;;;;;14.56;70.46;97345.13;10465121;28;20041;-65
2021/10/30 11:55:02;;;;;;;14.57;11.68;;;;;;;14.62;63.90;97333.44;10116970;28;10000236;-65
2021/10/30 12:00:07;;;;;;;14.20;11.82;;;;;;;14.68;64.21;97324.47;10467095;28;20940;-66
2021/10/30 12:05:15;;;;;;;18.77;11.38;;;;;;;14.71;68.34;97307.78;10466801;28;20567;-68
2021/10/30 12:10:26;;;;;;;24.70;16.73;;;;;;;14.76;63.94;97313.38;10474006;28;21282;-63
2021/10/30 12:15:30;;;;;;;17.60;12.05;;;;;;;14.88;65.40;97318.09;10473323;28;20039;-64
2021/10/30 12:20:35;;;;;;;17.58;12.00;;;;;;;14.92;64.93;97300.38;10472365;28;20052;-64
2021/10/30 12:25:41;;;;;;;15.05;10.82;;;;;;;14.94;64.05;97309.13;10498997;27;20102;-65
2021/10/30 12:30:45;;;;;;;20.35;13.45;;;;;;;14.91;65.08;97325.81;10478317;28;20043;-69
2021/10/30 12:35:51;;;;;;;15.75;11.52;;;;;;;14.98;65.28;97320.34;10472813;28;20143;-65
2021/10/30 12:40:55;;;;;;;13.48;10.32;;;;;;;15.07;64.91;97317.19;10470508;28;20902;-65
2021/10/30 12:46:01;;;;;;;14.10;10.00;;;;;;;15.22;69.51;97314.16;10473197;28;20041;-65
2021/10/30 12:51:11;;;;;;;17.98;11.65;;;;;;;15.25;66.14;97307.47;10473181;28;20693;-63
2021/10/30 12:56:16;;;;;;;20.25;11.80;;;;;;;15.18;64.90;97310.22;10495239;27;20041;-63
2021/10/30 13:01:21;;;;;;;17.92;12.40;;;;;;;15.09;63.38;97306.97;10473946;28;20045;-63
2021/10/30 13:06:27;;;;;;;22.67;13.43;;;;;;;15.06;64.86;97301.97;10470826;28;20041;-63
2021/10/30 13:11:30;;;;;;;19.40;11.63;;;;;;;15.04;63.39;97309.47;10475244;28;20044;-63
2021/10/30 13:16:33;;;;;;;18.15;10.18;;;;;;;15.03;61.76;97302.38;10473530;28;20037;-63
2021/10/30 13:21:37;;;;;;;13.13;10.07;;;;;;;15.03;64.13;97296.16;10473161;28;20620;-63
2021/10/30 13:26:42;;;;;;;15.20;9.55;;;;;;;14.97;66.43;97305.97;10494687;28;21332;-63
2021/10/30 13:31:47;;;;;;;12.30;9.80;;;;;;;14.88;67.19;97301.84;10473923;28;20037;-63
2021/10/30 13:36:51;;;;;;;13.27;9.88;;;;;;;14.78;67.15;97305.84;10470124;28;20483;-63
2021/10/30 13:41:56;;;;;;;15.55;9.70;;;;;;;14.71;68.82;97304.22;10473660;28;20122;-64
2021/10/30 13:46:59;;;;;;;15.07;9.57;;;;;;;14.66;73.07;97307.53;10470138;28;20051;-64
2021/10/30 13:52:05;;;;;;;13.65;10.32;;;;;;;14.54;74.14;97311.97;10468617;28;20040;-64
2021/10/30 13:57:08;;;;;;;15.45;10.27;;;;;;;14.44;74.67;97320.56;10470764;28;20182;-64
2021/10/30 14:02:13;;;;;;;14.35;10.07;;;;;;;14.38;75.83;97329.53;10470213;28;20054;-65
2021/10/30 14:07:19;;;;;;;13.25;10.20;;;;;;;14.31;76.12;97337.69;10468104;28;20093;-64
2021/10/30 14:12:22;;;;;;;16.52;10.27;;;;;;;14.30;75.24;97346.84;10472901;28;20102;-64
2021/10/30 14:17:26;;;;;;;15.73;12.23;;;;;;;14.20;70.51;97346.44;10472831;28;20044;-65
2021/10/30 14:22:30;;;;;;;16.55;12.27;;;;;;;14.14;74.46;97329.16;10470892;28;20044;-65
2021/10/30 14:27:33;;;;;;;15.88;11.45;;;;;;;14.02;75.34;97335.22;10471558;28;20036;-68
2021/10/30 14:32:38;;;;;;;14.63;11.05;;;;;;;13.93;78.80;97330.25;10471749;28;20051;-67
2021/10/30 14:37:43;;;;;;;15.60;11.07;;;;;;;13.87;80.64;97338.16;10468845;28;20183;-67
2021/10/30 14:42:46;;;;;;;15.32;11.23;;;;;;;13.80;80.79;97345.47;10468068;28;20049;-68
2021/10/30 14:47:49;;;;;;;13.48;10.98;;;;;;;13.69;80.92;97335.28;10469496;28;20186;-67
2021/10/30 14:52:55;;;;;;;14.63;11.23;;;;;;;13.60;82.96;97359.00;10465051;28;20045;-67
2021/10/30 14:57:58;;;;;;;15.20;10.88;;;;;;;13.59;84.27;97378.13;10470967;28;20470;-66
2021/10/30 15:03:04;;;;;;;16.92;12.05;;;;;;;13.51;85.42;97366.47;10468823;28;20039;-68
2021/10/30 15:08:09;;;;;;;16.10;12.05;;;;;;;13.38;83.68;97374.53;10468558;28;20037;-67
2021/10/30 15:13:12;;;;;;;20.05;12.82;;;;;;;13.28;84.91;97364.13;10466371;28;20162;-67
2021/10/30 15:18:16;;;;;;;18.10;12.57;;;;;;;13.17;83.91;97368.25;10466591;28;20037;-67
2021/10/30 15:23:20;;;;;;;18.95;13.32;;;;;;;13.06;82.33;97368.84;10469064;28;20052;-66
2021/10/30 15:28:28;;;;;;;22.73;15.05;;;;;;;12.92;80.45;97385.00;10468990;28;20040;-67
2021/10/30 15:33:31;;;;;;;24.35;15.85;;;;;;;12.88;83.36;97388.31;10469451;28;20075;-67
2021/10/30 15:38:36;;;;;;;19.05;14.55;;;;;;;12.76;82.22;97393.44;10467132;28;20134;-67
2021/10/30 15:43:40;;;;;;;22.48;15.10;;;;;;;12.70;86.00;97403.19;10469371;28;20049;-64
2021/10/30 15:48:43;;;;;;;19.67;14.30;;;;;;;12.62;86.49;97400.66;10463562;28;20043;-66
2021/10/30 15:53:48;;;;;;;18.52;13.27;;;;;;;12.56;87.62;97409.56;10468188;28;20102;-67
2021/10/30 15:58:51;;;;;;;20.42;14.32;;;;;;;12.42;86.35;97416.75;10468494;28;20043;-66
2021/10/30 16:03:54;;;;;;;17.65;14.02;;;;;;;12.36;87.42;97418.38;10470528;28;20041;-66
2021/10/30 16:08:59;;;;;;;19.63;14.48;;;;;;;12.27;87.95;97425.81;10468598;28;20047;-66
2021/10/30 16:14:04;;;;;;;19.65;14.60;;;;;;;12.20;87.48;97424.09;10468519;28;20899;-66
2021/10/30 16:19:07;;;;;;;20.83;16.15;;;;;;;12.10;88.89;97419.03;10465688;28;20137;-66
2021/10/30 16:24:12;;;;;;;18.95;13.32;;;;;;;12.02;86.17;97428.09;10466743;28;20083;-66
2021/10/30 16:29:16;;;;;;;16.63;11.65;;;;;;;11.96;82.69;97436.94;10466601;28;20056;-67
2021/10/30 16:34:19;;;;;;;17.35;11.98;;;;;;;11.91;83.71;97432.13;10466803;28;20043;-66
2021/10/30 16:39:25;;;;;;;19.13;12.32;;;;;;;11.90;82.87;97440.41;10463030;28;20583;-67
2021/10/30 16:44:29;;;;;;;18.80;13.48;;;;;;;11.89;83.03;97442.28;10464382;28;20040;-67
2021/10/30 16:49:34;;;;;;;15.77;12.05;;;;;;;11.85;81.47;97444.53;10463124;28;20159;-66
2021/10/30 16:54:39;;;;;;;15.45;11.68;;;;;;;11.82;80.49;97450.31;10466258;28;20048;-66
2021/10/30 16:59:43;;;;;;;16.73;11.95;;;;;;;11.79;80.76;97444.47;10469030;28;20551;-67
2021/10/30 17:04:49;;;;;;;16.25;12.13;;;;;;;11.75;81.85;97444.03;10472517;28;20151;-66
2021/10/30 17:09:55;;;;;;;17.70;11.90;;;;;;;11.71;81.83;97451.66;10472265;28;20119;-67
2021/10/30 17:15:00;;;;;;;17.88;11.40;;;;;;;11.66;85.22;97455.97;10468985;28;20040;-68
2021/10/30 17:20:04;;;;;;;15.52;11.02;;;;;;;11.60;90.29;97462.13;10471336;28;20044;-70
2021/10/30 17:25:11;;;;;;;16.05;11.98;;;;;;;11.46;96.30;97471.97;10471991;28;20126;-68
2021/10/30 17:30:14;;;;;;;16.58;12.45;;;;;;;11.37;95.66;97466.66;10467280;28;20050;-68
2021/10/30 17:35:18;;;;;;;19.80;13.75;;;;;;;11.35;99.41;97471.41;10470262;28;20690;-69
2021/10/30 17:40:22;;;;;;;16.55;12.93;;;;;;;11.27;100.00;97493.09;10471997;28;20178;-69
2021/10/30 17:45:25;;;;;;;19.17;12.80;;;;;;;11.14;100.00;97498.31;10496966;28;20125;-68
2021/10/30 17:50:30;;;;;;;17.38;12.45;;;;;;;11.05;100.00;97481.44;10469396;28;20379;-69
2021/10/30 17:55:35;;;;;;;18.27;13.50;;;;;;;11.00;100.00;97479.28;10470913;28;20088;-68
2021/10/30 18:00:42;;;;;;;16.13;12.20;;;;;;;10.90;100.00;97484.13;10471441;28;20044;-63
2021/10/30 18:05:45;;;;;;;16.10;12.55;;;;;;;10.82;100.00;97478.81;10461744;28;20041;-63
2021/10/30 18:10:52;;;;;;;15.05;11.63;;;;;;;10.77;100.00;97485.59;10467232;28;20445;-63
2021/10/30 18:15:56;;;;;;;15.82;11.98;;;;;;;10.69;100.00;97498.34;10472895;28;20463;-63
2021/10/30 18:21:00;;;;;;;14.88;10.82;;;;;;;10.63;100.00;97489.16;10468009;28;20036;-63
2021/10/30 18:26:08;;;;;;;15.20;10.88;;;;;;;10.57;100.00;97487.19;10471798;28;20123;-63
2021/10/30 18:31:27;;;;;;;14.25;10.85;;;;;;;10.48;100.00;97489.97;10471087;28;20048;-63
2021/10/30 18:36:30;;;;;;;13.90;10.95;;;;;;;10.43;100.00;97483.47;10472240;28;20456;-64
2021/10/30 18:41:35;;;;;;;14.63;11.18;;;;;;;10.42;100.00;97481.78;10468577;28;20135;-64
2021/10/30 18:46:38;;;;;;;15.68;11.13;;;;;;;10.39;100.00;97474.91;10468580;28;20410;-64
2021/10/30 18:51:41;;;;;;;13.70;11.05;;;;;;;10.33;100.00;97489.06;10469887;28;20066;-64
2021/10/30 18:56:45;;;;;;;17.55;11.63;;;;;;;10.28;100.00;97503.06;10469271;28;20033;-64
2021/10/30 19:01:49;;;;;;;17.13;11.70;;;;;;;10.22;100.00;97508.34;10470794;28;20076;-64
2021/10/30 19:06:52;;;;;;;20.60;13.18;;;;;;;10.21;100.00;97499.44;10469225;28;20490;-64
2021/10/30 19:11:57;;;;;;;16.88;12.43;;;;;;;10.17;100.00;97508.88;10469972;28;20329;-64
2021/10/30 19:17:00;;;;;;;16.30;12.40;;;;;;;10.17;100.00;97508.88;10468558;28;20040;-64
2021/10/30 19:22:04;;;;;;;16.88;12.18;;;;;;;10.22;100.00;97505.66;10469617;28;20037;-64
2021/10/30 19:27:08;;;;;;;17.45;12.68;;;;;;;10.23;100.00;97520.78;10494459;28;20044;-64
2021/10/30 19:32:12;;;;;;;17.58;11.90;;;;;;;10.22;100.00;97519.09;10468959;28;20847;-65
2021/10/30 19:37:15;;;;;;;16.23;12.05;;;;;;;10.21;100.00;97520.13;10463816;28;20032;-65
2021/10/30 19:42:19;;;;;;;15.43;11.55;;;;;;;10.24;100.00;97527.84;10470324;28;20749;-70
2021/10/30 19:47:24;;;;;;;15.02;11.77;;;;;;;10.23;100.00;97531.56;10467104;28;20246;-65
2021/10/30 19:52:27;;;;;;;16.48;12.07;;;;;;;10.23;100.00;97532.38;10466276;28;20142;-64
2021/10/30 19:57:32;;;;;;;17.63;12.35;;;;;;;10.23;100.00;97520.78;10469167;28;20133;-66
2021/10/30 20:02:35;;;;;;;16.92;12.65;;;;;;;10.20;100.00;97524.69;10470003;28;20063;-68
2021/10/30 20:07:38;;;;;;;16.85;12.40;;;;;;;10.20;100.00;97531.91;10465312;28;20104;-64
2021/10/30 20:12:43;;;;;;;15.95;11.98;;;;;;;10.16;100.00;97526.91;10464891;28;20115;-63
2021/10/30 20:17:46;;;;;;;16.20;12.40;;;;;;;10.16;100.00;97518.84;10462465;28;20089;-67
2021/10/30 20:22:50;;;;;;;15.25;11.57;;;;;;;10.15;100.00;97513.59;10456383;28;20145;-68
2021/10/30 20:27:56;;;;;;;16.52;11.60;;;;;;;10.09;100.00;97525.13;10456442;28;20174;-67
2021/10/30 20:33:00;;;;;;;17.27;11.60;;;;;;;10.00;100.00;97517.09;10472569;28;20703;-67
2021/10/30 20:38:04;;;;;;;14.18;11.18;;;;;;;9.94;100.00;97525.03;10469544;28;20053;-67
2021/10/30 20:43:09;;;;;;;14.70;11.00;;;;;;;9.94;100.00;97527.72;10474251;28;20685;-68
2021/10/30 20:48:13;;;;;;;15.65;10.70;;;;;;;9.94;100.00;97525.88;10472343;28;20033;-68
2021/10/30 20:53:16;;;;;;;14.02;10.82;;;;;;;9.92;100.00;97532.47;10474570;28;20079;-69
2021/10/30 20:58:21;;;;;;;12.98;10.13;;;;;;;9.94;100.00;97539.34;10474435;28;20043;-68
2021/10/30 21:03:26;;;;;;;14.35;10.57;;;;;;;9.95;100.00;97549.09;10475063;28;20126;-67
2021/10/30 21:08:29;;;;;;;12.23;9.43;;;;;;;9.96;100.00;97564.22;10473716;28;20040;-68
2021/10/30 21:13:34;;;;;;;13.57;10.02;;;;;;;9.97;100.00;97554.28;10476139;28;20509;-67
2021/10/30 21:18:37;;;;;;;16.65;10.27;;;;;;;9.95;100.00;97554.47;10474393;28;20126;-63
2021/10/30 21:23:42;;;;;;;16.73;10.68;;;;;;;9.95;100.00;97561.69;10473957;28;20044;-63
2021/10/30 21:28:49;;;;;;;14.15;10.15;;;;;;;9.90;100.00;97567.59;10470140;28;20110;-64
2021/10/30 21:33:53;;;;;;;15.65;10.90;;;;;;;9.83;100.00;97570.16;10474753;28;20052;-62
2021/10/30 21:38:57;;;;;;;15.60;9.73;;;;;;;9.90;100.00;97582.94;10470847;28;20463;-63
2021/10/30 21:44:02;;;;;;;11.57;9.45;;;;;;;9.91;100.00;97592.69;10470218;28;20583;-62
2021/10/30 21:49:05;;;;;;;14.30;9.85;;;;;;;9.84;100.00;97588.00;10471503;28;20127;-64
2021/10/30 21:54:08;;;;;;;14.35;10.15;;;;;;;9.80;100.00;97592.06;10473119;28;20167;-64
2021/10/30 21:59:12;;;;;;;12.35;9.60;;;;;;;9.83;100.00;97596.25;10472535;28;20379;-68
2021/10/30 22:04:15;;;;;;;16.73;10.00;;;;;;;9.91;100.00;97595.38;10474312;28;20048;-68
2021/10/30 22:09:19;;;;;;;12.07;9.75;;;;;;;9.87;100.00;97601.09;10469196;27;20060;-67
2021/10/30 22:14:23;;;;;;;15.38;10.60;;;;;;;9.86;100.00;97602.09;10472193;28;20062;-67
2021/10/30 22:19:27;;;;;;;13.10;10.07;;;;;;;9.92;100.00;97607.81;10472722;28;20985;-68
2021/10/30 22:24:30;;;;;;;12.27;9.30;;;;;;;9.99;100.00;97614.13;10474653;28;20159;-68
2021/10/30 22:29:34;;;;;;;13.80;10.00;;;;;;;10.12;100.00;97613.53;10471690;28;20465;-68
2021/10/30 22:34:37;;;;;;;14.15;8.93;;;;;;;10.28;100.00;97609.94;10469748;28;20048;-68
2021/10/30 22:39:40;;;;;;;12.23;8.85;;;;;;;10.32;100.00;97606.69;10472019;28;20151;-68
2021/10/30 22:44:46;;;;;;;12.48;8.77;;;;;;;10.42;100.00;97628.00;10471870;28;20529;-68
2021/10/30 22:49:50;;;;;;;14.02;8.77;;;;;;;10.49;100.00;97625.44;10466139;28;20101;-67
2021/10/30 22:54:53;;;;;;;10.02;8.30;;;;;;;10.63;100.00;97627.34;10471848;28;20066;-67
2021/10/30 22:59:58;;;;;;;12.50;8.50;;;;;;;10.74;100.00;97631.47;10470212;28;20044;-68